Time;durP1;ratioP1;P1;durP2;ratioP2;P2;SDS_P1;SDS_P2;PMS_P1;PMS_P2;Temp;Humidity;BMP_temperature;BMP_pressure;BME280_temperature;BME280_humidity;BME280_pressure;Samples;Min_cycle;Max_cycle;Signal;HPM_P1;HPM_P2
2022/03/15 00:01:24;;;;;;;17.70;7.70;;;;;;;;;;4870430;29;20048;-71
2022/03/15 00:03:50;;;;;;;19.25;7.88;;;;;;;;;;4861567;29;20052;-71
2022/03/15 00:06:16;;;;;;;23.50;7.32;;;;;;;;;;4860620;29;20048;-71
2022/03/15 00:08:44;;;;;;;17.95;7.65;;;;;;;;;;4861116;29;20056;-71
2022/03/15 00:11:11;;;;;;;20.52;7.47;;;;;;;;;;4845990;29;20045;-71
2022/03/15 00:13:38;;;;;;;20.08;7.85;;;6.10;99.90;;;;;;4865185;29;20044;-71
2022/03/15 00:16:07;;;;;;;16.58;7.85;;;5.00;99.90;;;;;;4864967;29;20045;-71
2022/03/15 00:18:33;;;;;;;20.30;8.20;;;;;;;;;;4864590;29;20048;-71
2022/03/15 00:21:02;;;;;;;21.13;8.40;;;6.00;99.90;;;;;;4849606;29;20048;-71
2022/03/15 00:23:28;;;;;;;20.73;8.15;;;;;;;;;;4865005;29;20044;-71
2022/03/15 00:25:54;;;;;;;20.88;8.50;;;;;;;;;;4864728;29;20052;-71
2022/03/15 00:28:22;;;;;;;25.63;8.73;;;;;;;;;;4864408;29;20087;-71
2022/03/15 00:30:49;;;;;;;23.52;8.55;;;;;;;;;;4864737;29;20041;-71
2022/03/15 00:33:15;;;;;;;22.95;9.20;;;;;;;;;;4864747;29;20044;-71
2022/03/15 00:35:42;;;;;;;18.58;8.75;;;;;;;;;;4849455;29;20456;-71
2022/03/15 00:38:08;;;;;;;22.38;8.90;;;;;;;;;;4849064;29;20048;-71
2022/03/15 00:40:34;;;;;;;17.90;9.20;;;;;;;;;;4864543;29;20409;-71
2022/03/15 00:43:00;;;;;;;21.90;9.23;;;;;;;;;;4864530;29;20041;-71
2022/03/15 00:45:28;;;;;;;24.00;8.82;;;;;;;;;;4864272;29;20119;-71
2022/03/15 00:47:56;;;;;;;23.80;9.15;;;5.60;99.90;;;;;;4864709;29;20088;-71
2022/03/15 00:50:22;;;;;;;24.95;9.43;;;5.70;99.90;;;;;;4864223;29;20076;-71
2022/03/15 00:52:50;;;;;;;21.00;9.15;;;5.60;99.90;;;;;;4864577;29;20041;-71
2022/03/15 00:55:16;;;;;;;19.83;8.90;;;;;;;;;;4863742;29;20502;-72
2022/03/15 00:57:42;;;;;;;18.13;8.88;;;;;;;;;;4861936;29;20387;-72
2022/03/15 01:00:11;;;;;;;19.67;9.52;;;5.60;99.90;;;;;;4864029;29;20132;-71
2022/03/15 01:02:37;;;;;;;18.77;8.60;;;;;;;;;;4864464;29;20041;-71
2022/03/15 01:05:04;;;;;;;17.80;9.35;;;;;;;;;;4864044;29;20083;-72
2022/03/15 01:07:30;;;;;;;22.38;8.30;;;;;;;;;;4874112;29;20055;-71
2022/03/15 01:09:56;;;;;;;18.58;8.52;;;;;;;;;;4863899;29;20511;-71
2022/03/15 01:12:22;;;;;;;19.55;9.75;;;;;;;;;;4847916;29;20395;-71
2022/03/15 01:14:49;;;;;;;24.63;8.88;;;;;;;;;;4863955;29;20041;-71
2022/03/15 01:17:15;;;;;;;21.27;9.68;;;;;;;;;;4848259;29;20073;-71
2022/03/15 01:19:41;;;;;;;24.75;10.15;;;;;;;;;;4863852;29;20037;-71
2022/03/15 01:22:07;;;;;;;21.75;8.73;;;;;;;;;;4863472;29;20097;-71
2022/03/15 01:24:34;;;;;;;19.75;9.38;;;;;;;;;;4870950;29;20053;-71
2022/03/15 01:27:00;;;;;;;17.92;9.00;;;;;;;;;;4863691;29;20119;-71
2022/03/15 01:29:26;;;;;;;18.83;9.15;;;;;;;;;;4861410;29;20076;-71
2022/03/15 01:31:53;;;;;;;16.05;9.05;;;;;;;;;;4864126;29;20055;-71
2022/03/15 01:34:20;;;;;;;20.63;9.40;;;;;;;;;;4863753;29;20056;-71
2022/03/15 01:36:46;;;;;;;19.40;9.30;;;;;;;;;;4863486;29;20053;-72
2022/03/15 01:39:12;;;;;;;17.13;9.23;;;;;;;;;;4863303;29;20566;-71
2022/03/15 01:41:41;;;;;;;21.55;9.27;;;;;;;;;;4863419;29;20497;-71
2022/03/15 01:44:18;;;;;;;22.77;10.40;;;5.60;99.90;;;;;;4863761;29;20097;-71
2022/03/15 01:46:45;;;;;;;23.38;10.68;;;5.50;99.90;;;;;;4860216;29;20052;-71
2022/03/15 01:49:11;;;;;;;18.67;9.48;;;;;;;;;;4873598;29;20081;-71
2022/03/15 01:51:40;;;;;;;22.38;9.77;;;;;;;;;;4862426;29;20486;-71
2022/03/15 01:54:06;;;;;;;22.20;9.32;;;;;;;;;;4879740;29;20081;-71
2022/03/15 01:56:33;;;;;;;21.58;10.15;;;;;;;;;;4850159;29;20117;-71
2022/03/15 01:59:00;;;;;;;23.42;10.32;;;;;;;;;;4862263;29;20037;-71
2022/03/15 02:01:26;;;;;;;22.40;10.50;;;;;;;;;;4849723;29;20044;-71
2022/03/15 02:03:52;;;;;;;22.10;9.82;;;;;;;;;;4863103;29;20037;-71
2022/03/15 02:06:18;;;;;;;23.95;10.75;;;;;;;;;;4849976;29;20034;-71
2022/03/15 02:08:44;;;;;;;22.90;9.48;;;;;;;;;;4862925;29;20052;-71
2022/03/15 02:11:10;;;;;;;29.58;11.27;;;6.60;99.90;;;;;;4862690;29;20081;-71
2022/03/15 02:13:36;;;;;;;20.60;10.15;;;;;;;;;;4863113;29;20045;-72
2022/03/15 02:16:02;;;;;;;30.33;11.07;;;;;;;;;;4863233;29;20443;-71
2022/03/15 02:18:29;;;;;;;21.35;10.63;;;;;;;;;;4860856;29;20045;-71
2022/03/15 02:20:55;;;;;;;17.77;9.90;;;;;;;;;;4860626;29;20053;-71
2022/03/15 02:23:21;;;;;;;32.88;10.88;;;;;;;;;;4878051;29;20065;-71
2022/03/15 02:25:48;;;;;;;29.20;10.38;;;;;;;;;;4862881;29;20068;-71
2022/03/15 02:28:14;;;;;;;24.83;9.70;;;;;;;;;;4861507;29;20042;-71
2022/03/15 02:30:40;;;;;;;22.88;10.68;;;;;;;;;;4847067;29;20064;-71
2022/03/15 02:33:06;;;;;;;28.77;12.23;;;;;;;;;;4862330;29;20044;-71
2022/03/15 02:35:32;;;;;;;28.67;11.90;;;;;;;;;;4841072;29;20049;-71
2022/03/15 02:37:58;;;;;;;25.13;12.55;;;;;;;;;;4862695;29;20049;-71
2022/03/15 02:40:24;;;;;;;19.17;10.95;;;;;;;;;;4859190;29;20041;-71
2022/03/15 02:42:50;;;;;;;26.83;11.43;;;;;;;;;;4861315;29;20045;-71
2022/03/15 02:45:16;;;;;;;29.77;11.38;;;;;;;;;;4862141;29;20047;-71
2022/03/15 02:47:46;;;;;;;22.15;10.80;;;;;;;;;;4850281;29;20075;-71
2022/03/15 02:50:13;;;;;;;27.50;12.20;;;;;;;;;;4862357;29;20048;-71
2022/03/15 02:52:39;;;;;;;26.95;12.20;;;;;;;;;;4862130;29;20482;-71
2022/03/15 02:55:05;;;;;;;28.88;12.30;;;;;;;;;;4862325;29;20118;-71
2022/03/15 02:57:32;;;;;;;23.20;12.60;;;;;;;;;;4861962;29;20135;-72
2022/03/15 02:59:58;;;;;;;30.20;11.95;;;;;;;;;;4846827;29;20099;-71
2022/03/15 03:02:24;;;;;;;26.80;11.57;;;;;;;;;;4862015;29;20040;-71
2022/03/15 03:04:51;;;;;;;28.60;12.55;;;;;;;;;;4862018;29;20120;-71
2022/03/15 03:07:18;;;;;;;22.50;11.38;;;;;;;;;;4861868;29;20041;-71
2022/03/15 03:09:45;;;;;;;29.55;12.68;;;;;;;;;;4861707;29;20055;-71
2022/03/15 03:12:16;;;;;;;25.75;12.50;;;;;;;;;;4850320;29;20099;-71
2022/03/15 03:14:47;;;;;;;25.38;12.25;;;5.90;99.90;;;;;;4862017;29;20045;-71
2022/03/15 03:17:13;;;;;;;28.17;12.68;;;;;;;;;;4850180;29;20052;-71
2022/03/15 03:19:39;;;;;;;29.40;13.05;;;;;;;;;;4861984;29;20041;-71
2022/03/15 03:22:06;;;;;;;25.25;11.57;;;;;;;;;;4842851;29;20403;-71
2022/03/15 03:24:32;;;;;;;25.25;13.18;;;;;;;;;;4862114;29;20080;-71
2022/03/15 03:27:00;;;;;;;22.92;12.77;;;;;;;;;;4861575;29;20096;-71
2022/03/15 03:29:28;;;;;;;28.38;13.25;;;;;;;;;;4859580;29;20041;-71
2022/03/15 03:31:55;;;;;;;27.00;12.18;;;;;;;;;;4861601;29;20048;-71
2022/03/15 03:34:21;;;;;;;23.33;12.88;;;;;;;;;;4844032;29;20068;-72
2022/03/15 03:36:48;;;;;;;26.00;13.27;;;;;;;;;;4861514;29;20041;-71
2022/03/15 03:39:14;;;;;;;22.60;13.05;;;;;;;;;;4858791;29;20088;-71
2022/03/15 03:41:40;;;;;;;22.90;12.48;;;;;;;;;;4861279;29;20045;-71
2022/03/15 03:44:06;;;;;;;26.15;12.55;;;;;;;;;;4843437;29;20364;-71
2022/03/15 03:46:33;;;;;;;27.95;13.40;;;;;;;;;;4861143;29;20029;-71
2022/03/15 03:48:59;;;;;;;29.05;13.25;;;;;;;;;;4861654;29;20048;-71
2022/03/15 03:51:25;;;;;;;25.27;13.25;;;;;;;;;;4861247;29;20097;-71
2022/03/15 03:53:51;;;;;;;25.67;12.93;;;;;;;;;;4858668;29;20069;-71
2022/03/15 03:56:17;;;;;;;27.58;12.63;;;;;;;;;;4861126;29;20061;-71
2022/03/15 03:58:43;;;;;;;21.40;12.60;;;;;;;;;;4858967;29;20128;-71
2022/03/15 04:01:09;;;;;;;22.40;13.32;;;;;;;;;;4844727;29;20053;-71
2022/03/15 04:03:35;;;;;;;28.13;12.70;;;;;;;;;;4861578;29;20486;-71
2022/03/15 04:06:04;;;;;;;27.42;13.15;;;;;;;;;;4861663;29;20067;-71
2022/03/15 04:08:31;;;;;;;25.58;12.35;;;;;;;;;;4859407;29;20052;-71
2022/03/15 04:10:57;;;;;;;25.90;12.23;;;;;;;;;;4843542;29;20044;-71
2022/03/15 04:13:25;;;;;;;22.17;11.68;;;;;;;;;;4861327;29;20553;-71
2022/03/15 04:15:51;;;;;;;24.70;12.05;;;;;;;;;;4861422;29;20497;-72
2022/03/15 04:18:17;;;;;;;27.42;13.82;;;;;;;;;;4848205;29;20045;-71
2022/03/15 04:20:43;;;;;;;20.73;12.45;;;;;;;;;;4859704;29;20431;-73
2022/03/15 04:23:10;;;;;;;21.98;11.35;;;;;;;;;;4860914;29;20482;-74
2022/03/15 04:25:36;;;;;;;22.20;12.23;;;;;;;;;;4861550;29;20082;-74
2022/03/15 04:28:02;;;;;;;24.67;12.75;;;;;;;;;;4861544;29;20450;-74
2022/03/15 04:30:29;;;;;;;29.27;13.02;;;;;;;;;;4861315;29;20045;-73
2022/03/15 04:32:55;;;;;;;25.52;12.57;;;;;;;;;;4861142;29;20059;-73
2022/03/15 04:35:21;;;;;;;25.67;11.68;;;;;;;;;;4844427;29;20052;-75
2022/03/15 04:37:49;;;;;;;27.75;13.20;;;;;;;;;;4858549;29;20037;-73
2022/03/15 04:40:17;;;;;;;27.13;13.55;;;;;;;;;;4860166;29;20041;-74
2022/03/15 04:42:43;;;;;;;29.45;15.18;;;;;;;;;;4857636;29;20096;-74
2022/03/15 04:45:10;;;;;;;21.55;13.73;;;;;;;;;;4859560;29;20099;-74
2022/03/15 04:47:37;;;;;;;26.90;13.02;;;;;;;;;;4860981;29;20052;-72
2022/03/15 04:50:03;;;;;;;26.63;14.10;;;5.30;99.90;;;;;;4860941;29;20045;-73
2022/03/15 04:52:29;;;;;;;21.73;13.30;;;;;;;;;;4861062;29;20053;-73
2022/03/15 04:54:55;;;;;;;26.80;14.10;;;;;;;;;;4845427;29;20079;-73
2022/03/15 04:57:21;;;;;;;27.38;13.20;;;;;;;;;;4861151;29;20053;-73
2022/03/15 04:59:47;;;;;;;25.27;13.50;;;;;;;;;;4861340;29;20037;-77
2022/03/15 05:02:13;;;;;;;22.90;12.23;;;;;;;;;;4863867;29;20037;-74
2022/03/15 05:04:39;;;;;;;34.28;13.68;;;;;;;;;;4862365;29;20030;-75
2022/03/15 05:07:05;;;;;;;27.25;13.30;;;;;;;;;;4846759;29;20060;-75
2022/03/15 05:09:31;;;;;;;25.33;14.00;;;;;;;;;;4864302;29;20037;-75
2022/03/15 05:11:58;;;;;;;30.73;13.65;;;;;;;;;;4846711;29;20072;-74
2022/03/15 05:14:24;;;;;;;28.98;14.52;;;;;;;;;;4848176;29;20084;-75
2022/03/15 05:16:50;;;;;;;27.42;14.60;;;;;;;;;;4851901;29;20126;-75
2022/03/15 05:19:17;;;;;;;22.40;13.77;;;;;;;;;;4864070;29;20040;-75
2022/03/15 05:21:43;;;;;;;23.98;14.43;;;;;;;;;;4848582;29;20068;-75
2022/03/15 05:24:09;;;;;;;28.85;14.52;;;;;;;;;;4862717;29;20041;-75
2022/03/15 05:26:35;;;;;;;30.05;14.27;;;;;;;;;;4863754;29;20063;-75
2022/03/15 05:29:01;;;;;;;33.10;15.52;;;;;;;;;;4864891;29;20132;-73
2022/03/15 05:31:29;;;;;;;26.65;14.15;;;;;;;;;;4863888;29;20045;-72
2022/03/15 05:33:55;;;;;;;28.95;15.40;;;;;;;;;;4846705;29;20037;-73
2022/03/15 05:36:21;;;;;;;28.70;14.50;;;;;;;;;;4863827;29;20048;-73
2022/03/15 05:38:48;;;;;;;29.10;15.07;;;;;;;;;;4852290;29;20041;-73
2022/03/15 05:41:14;;;;;;;29.30;16.33;;;;;;;;;;4863748;29;20063;-73
2022/03/15 05:43:40;;;;;;;32.70;16.27;;;;;;;;;;4857313;29;20037;-73
2022/03/15 05:46:06;;;;;;;33.40;16.52;;;;;;;;;;4863377;29;20044;-73
2022/03/15 05:48:34;;;;;;;26.80;14.48;;;;;;;;;;4859372;29;20102;-73
2022/03/15 05:51:00;;;;;;;24.90;15.07;;;;;;;;;;4851701;29;20506;-74
2022/03/15 05:53:26;;;;;;;28.23;15.10;;;;;;;;;;4863504;29;20111;-73
2022/03/15 05:55:52;;;;;;;30.40;15.15;;;;;;;;;;4847816;29;20152;-74
2022/03/15 05:58:18;;;;;;;35.42;16.23;;;;;;;;;;4842685;29;20053;-74
2022/03/15 06:00:44;;;;;;;31.90;15.32;;;;;;;;;;4861665;29;20064;-73
2022/03/15 06:03:11;;;;;;;30.17;15.93;;;;;;;;;;4836011;29;20045;-73
2022/03/15 06:05:37;;;;;;;27.13;16.33;;;;;;;;;;4862767;29;20040;-73
2022/03/15 06:08:04;;;;;;;34.70;16.77;;;6.40;99.90;;;;;;4862226;29;20140;-73
2022/03/15 06:10:30;;;;;;;36.42;15.93;;;;;;;;;;4862704;29;20048;-73
2022/03/15 06:12:57;;;;;;;29.92;15.75;;;6.10;99.90;;;;;;4862501;29;20041;-73
2022/03/15 06:15:23;;;;;;;34.95;16.30;;;5.20;99.90;;;;;;4848334;29;20045;-73
2022/03/15 06:18:00;;;;;;;31.40;16.52;;;6.10;99.90;;;;;;4878302;29;20041;-73
2022/03/15 06:20:26;;;;;;;32.00;15.45;;;;;;;;;;4859724;29;20119;-73
2022/03/15 06:22:52;;;;;;;30.42;16.45;;;;;;;;;;4861828;29;20048;-73
2022/03/15 06:25:18;;;;;;;32.13;15.35;;;;;;;;;;4845496;29;20045;-73
2022/03/15 06:27:44;;;;;;;29.90;15.52;;;;;;;;;;4860641;29;20037;-73
2022/03/15 06:30:12;;;;;;;30.05;14.82;;;5.50;99.90;;;;;;4847604;29;20036;-73
2022/03/15 06:32:38;;;;;;;25.77;14.32;;;;;;;;;;4858707;29;20109;-73
2022/03/15 06:35:07;;;;;;;30.17;14.77;;;;;;;;;;4839975;29;20612;-73
2022/03/15 06:37:39;;;;;;;28.00;14.63;;;;;;;;;;4855341;29;20082;-73
2022/03/15 06:40:09;;;;;;;30.95;15.43;;;6.00;99.90;;;;;;4862427;29;20045;-73
2022/03/15 06:42:35;;;;;;;29.35;15.25;;;;;;;;;;4862728;29;20590;-73
2022/03/15 06:45:01;;;;;;;28.92;15.10;;;;;;;;;;4841610;29;20060;-73
2022/03/15 06:47:27;;;;;;;30.85;17.10;;;;;;;;;;4878801;29;20083;-73
2022/03/15 06:49:53;;;;;;;26.42;16.13;;;;;;;;;;4858072;29;20037;-73
2022/03/15 06:52:19;;;;;;;38.17;16.27;;;;;;;;;;4860255;29;20037;-73
2022/03/15 06:54:45;;;;;;;33.53;16.25;;;;;;;;;;4846431;29;20395;-73
2022/03/15 06:57:14;;;;;;;33.08;17.17;;;;;;;;;;4851916;29;20136;-73
2022/03/15 06:59:40;;;;;;;27.33;15.82;;;;;;;;;;4861398;29;20059;-73
2022/03/15 07:02:06;;;;;;;30.70;16.65;;;;;;;;;;4860481;29;20386;-73
2022/03/15 07:04:32;;;;;;;33.08;17.77;;;;;;;;;;4862171;29;20045;-73
2022/03/15 07:06:58;;;;;;;34.83;17.83;;;;;;;;;;4849867;29;20041;-73
2022/03/15 07:09:24;;;;;;;33.83;16.92;;;;;;;;;;4847259;29;20063;-73
2022/03/15 07:11:50;;;;;;;36.15;17.42;;;;;;;;;;4862189;29;20047;-73
2022/03/15 07:14:17;;;;;;;32.55;17.05;;;;;;;;;;4861801;29;20048;-73
2022/03/15 07:16:43;;;;;;;35.40;18.33;;;;;;;;;;4861694;29;20033;-73
2022/03/15 07:19:09;;;;;;;33.47;17.48;;;5.90;99.90;;;;;;4861865;29;20037;-73
2022/03/15 07:21:35;;;;;;;34.05;17.20;;;;;;;;;;4861401;29;20060;-73
2022/03/15 07:24:01;;;;;;;31.95;17.98;;;;;;;;;;4861997;29;20071;-73
2022/03/15 07:26:27;;;;;;;32.38;18.45;;;;;;;;;;4841830;29;20154;-73
2022/03/15 07:28:53;;;;;;;34.33;16.52;;;;;;;;;;4861476;29;20045;-73
2022/03/15 07:31:19;;;;;;;34.90;18.38;;;;;;;;;;4847335;29;20545;-73
2022/03/15 07:33:45;;;;;;;32.03;16.75;;;;;;;;;;4860350;29;20045;-73
2022/03/15 07:36:11;;;;;;;36.65;17.27;;;;;;;;;;4861304;29;20049;-73
2022/03/15 07:38:37;;;;;;;28.48;17.25;;;;;;;;;;4861002;29;20068;-73
2022/03/15 07:41:03;;;;;;;34.25;16.70;;;;;;;;;;4834696;29;20046;-73
2022/03/15 07:43:30;;;;;;;31.00;17.55;;;;;;;;;;4859606;29;20048;-71
2022/03/15 07:45:56;;;;;;;31.58;16.45;;;;;;;;;;4860683;29;20041;-71
2022/03/15 07:48:22;;;;;;;29.10;16.65;;;;;;;;;;4834349;29;20041;-71
2022/03/15 07:50:49;;;;;;;39.88;17.95;;;;;;;;;;4861526;29;20174;-71
2022/03/15 07:53:15;;;;;;;37.65;16.88;;;;;;;;;;4861326;29;20045;-71
2022/03/15 07:55:41;;;;;;;32.72;16.88;;;;;;;;;;4851723;29;20132;-71
2022/03/15 07:58:07;;;;;;;29.25;15.98;;;;;;;;;;4845001;29;20061;-71
2022/03/15 08:00:34;;;;;;;29.02;16.60;;;;;;;;;;4836507;29;20046;-70
2022/03/15 08:03:00;;;;;;;32.13;15.20;;;;;;;;;;4861557;29;20061;-71
2022/03/15 08:05:28;;;;;;;38.40;16.88;;;;;;;;;;4861601;29;20128;-71
2022/03/15 08:07:54;;;;;;;33.58;16.33;;;;;;;;;;4861252;29;20124;-71
2022/03/15 08:10:21;;;;;;;34.67;14.73;;;;;;;;;;4861484;29;20105;-71
2022/03/15 08:12:48;;;;;;;35.95;15.38;;;;;;;;;;4861529;29;20045;-71
2022/03/15 08:15:14;;;;;;;29.95;15.55;;;;;;;;;;4861226;29;20055;-71
2022/03/15 08:17:40;;;;;;;34.83;14.85;;;7.40;99.90;;;;;;4845764;29;20075;-70
2022/03/15 08:20:08;;;;;;;30.17;14.05;;;7.20;99.90;;;;;;4861348;29;20405;-71
2022/03/15 08:22:34;;;;;;;36.05;15.10;;;;;;;;;;4859744;29;20033;-71
2022/03/15 08:25:02;;;;;;;37.58;15.80;;;;;;;;;;4860642;29;20053;-71
2022/03/15 08:27:30;;;;;;;31.60;15.05;;;;;;;;;;4861282;29;20542;-71
2022/03/15 08:29:56;;;;;;;26.48;14.88;;;;;;;;;;4845844;29;20052;-71
2022/03/15 08:32:22;;;;;;;31.92;15.18;;;;;;;;;;4862029;29;20052;-70
2022/03/15 08:34:48;;;;;;;27.88;14.45;;;;;;;;;;4879116;29;20477;-71
2022/03/15 08:37:14;;;;;;;32.45;14.68;;;;;;;;;;4864458;29;20037;-71
2022/03/15 08:39:40;;;;;;;32.38;14.32;;;;;;;;;;4864800;29;20115;-71
2022/03/15 08:42:08;;;;;;;30.77;15.13;;;;;;;;;;4864419;29;20033;-71
2022/03/15 08:44:34;;;;;;;33.97;14.30;;;;;;;;;;4864830;29;20100;-71
2022/03/15 08:47:00;;;;;;;31.58;14.48;;;;;;;;;;4864324;29;20045;-71
2022/03/15 08:49:26;;;;;;;31.40;16.23;;;8.20;99.90;;;;;;4864616;29;20492;-71
2022/03/15 08:51:52;;;;;;;33.33;16.17;;;7.80;99.90;;;;;;4864422;29;20113;-70
2022/03/15 08:54:18;;;;;;;36.95;17.25;;;;;;;;;;4879926;29;20417;-71
2022/03/15 08:56:44;;;;;;;38.83;17.98;;;;;;;;;;4852089;29;20423;-70
2022/03/15 08:59:12;;;;;;;32.95;17.10;;;;;;;;;;4845834;29;20077;-71
2022/03/15 09:01:39;;;;;;;40.05;16.98;;;8.00;99.90;;;;;;4845680;29;20046;-71
2022/03/15 09:04:05;;;;;;;39.30;18.23;;;;;;;;;;4860737;29;20052;-71
2022/03/15 09:06:31;;;;;;;38.38;18.77;;;8.20;99.90;;;;;;4845642;29;20120;-71
2022/03/15 09:09:00;;;;;;;47.85;21.38;;;;;;;;;;4845671;29;20061;-71
2022/03/15 09:11:26;;;;;;;50.20;23.48;;;;;;;;;;4845574;29;20064;-71
2022/03/15 09:13:52;;;;;;;48.17;22.95;;;;;;;;;;4845568;29;20049;-71
2022/03/15 09:16:19;;;;;;;68.75;30.73;;;;;;;;;;4843941;29;20037;-71
2022/03/15 09:18:45;;;;;;;60.58;27.75;;;;;;;;;;4844708;29;20041;-71
2022/03/15 09:21:12;;;;;;;55.72;28.92;;;;;;;;;;4846422;29;20144;-70
2022/03/15 09:23:38;;;;;;;55.80;26.60;;;;;;;;;;4846565;29;20104;-71
2022/03/15 09:26:05;;;;;;;55.40;25.85;;;;;;;;;;4846647;29;20080;-71
2022/03/15 09:28:31;;;;;;;56.53;26.25;;;;;;;;;;4846854;29;20080;-71
2022/03/15 09:30:57;;;;;;;55.25;27.63;;;;;;;;;;4834209;29;20057;-71
2022/03/15 09:33:24;;;;;;;52.05;25.65;;;;;;;;;;4846162;29;20045;-71
2022/03/15 09:35:50;;;;;;;44.88;25.92;;;;;;;;;;4844394;29;20038;-71
2022/03/15 09:38:17;;;;;;;66.25;29.25;;;;;;;;;;4845233;29;20045;-71
2022/03/15 09:40:46;;;;;;;62.13;29.67;;;9.10;99.90;;;;;;4845172;29;20061;-71
2022/03/15 09:43:12;;;;;;;70.13;35.03;;;9.50;99.90;;;;;;4829204;29;20484;-71
2022/03/15 09:45:39;;;;;;;68.45;35.25;;;9.60;99.90;;;;;;4844763;29;20041;-71
2022/03/15 09:48:09;;;;;;;72.97;35.00;;;;;;;;;;4845149;29;20097;-70
2022/03/15 09:50:35;;;;;;;75.95;36.53;;;;;;;;;;4845082;29;20113;-71
2022/03/15 09:53:01;;;;;;;67.90;34.83;;;;;;;;;;4828062;29;20475;-71
2022/03/15 09:55:28;;;;;;;64.90;36.05;;;;;;;;;;4847514;29;20038;-71
2022/03/15 09:57:54;;;;;;;72.30;36.67;;;;;;;;;;4853834;29;20455;-71
2022/03/15 10:00:21;;;;;;;62.03;34.08;;;;;;;;;;4858927;29;20041;-71
2022/03/15 10:02:47;;;;;;;65.35;33.53;;;;;;;;;;4863190;29;20040;-71
2022/03/15 10:05:13;;;;;;;61.50;34.67;;;;;;;;;;4862008;29;20046;-71
2022/03/15 10:07:40;;;;;;;71.07;37.13;;;9.70;99.90;;;;;;4862819;29;20083;-71
2022/03/15 10:10:10;;;;;;;65.68;36.53;;;9.80;99.90;;;;;;4863124;29;20053;-71
2022/03/15 10:12:36;;;;;;;61.55;32.97;;;;;;;;;;4862808;29;20045;-71
2022/03/15 10:15:13;;;;;;;66.53;35.85;;;9.80;99.90;;;;;;4861935;29;20051;-71
2022/03/15 10:17:52;;;;;;;58.88;32.95;;;10.10;99.90;;;;;;4846600;29;20122;-71
2022/03/15 10:20:19;;;;;;;55.47;28.45;;;10.00;99.90;;;;;;4865972;29;20045;-71
2022/03/15 10:22:54;;;;;;;48.03;26.95;;;10.10;99.90;;;;;;4862875;29;20052;-71
2022/03/15 10:25:22;;;;;;;54.22;26.88;;;10.00;99.90;;;;;;4861648;29;20037;-71
2022/03/15 10:27:56;;;;;;;47.08;25.50;;;10.00;99.90;;;;;;4862797;29;20116;-71
2022/03/15 10:30:23;;;;;;;49.03;25.65;;;10.10;99.90;;;;;;4861613;29;20101;-71
2022/03/15 10:32:50;;;;;;;51.55;24.25;;;;;;;;;;4878479;29;20443;-71
2022/03/15 10:35:28;;;;;;;47.85;24.63;;;10.20;99.90;;;;;;4861748;29;20051;-70
2022/03/15 10:37:55;;;;;;;46.90;23.30;;;10.20;99.90;;;;;;4848821;29;20049;-70
2022/03/15 10:40:31;;;;;;;44.22;24.10;;;;;;;;;;4869964;29;20041;-70
2022/03/15 10:43:07;;;;;;;47.08;24.02;;;10.20;99.90;;;;;;4862133;29;20140;-70
2022/03/15 10:45:34;;;;;;;42.30;23.90;;;10.60;99.90;;;;;;4863173;29;20115;-70
2022/03/15 10:48:01;;;;;;;46.05;23.90;;;10.60;99.90;;;;;;4862378;29;20387;-70
2022/03/15 10:50:30;;;;;;;43.00;22.60;;;;;;;;;;4862559;29;20052;-72
2022/03/15 10:52:56;;;;;;;40.30;22.65;;;;;;;;;;4862570;29;20501;-72
2022/03/15 10:55:30;;;;;;;44.85;24.20;;;10.60;99.90;;;;;;4858987;29;20117;-71
2022/03/15 10:58:05;;;;;;;47.05;25.05;;;10.30;99.90;;;;;;4861679;29;20105;-71
2022/03/15 11:00:32;;;;;;;44.70;25.58;;;10.70;99.90;;;;;;4844045;29;20037;-70
2022/03/15 11:02:59;;;;;;;45.58;25.50;;;;;;;;;;4861223;29;20371;-70
2022/03/15 11:05:33;;;;;;;44.78;24.10;;;10.70;99.90;;;;;;4860293;29;20044;-70
2022/03/15 11:08:09;;;;;;;43.83;23.40;;;10.40;99.90;;;;;;4843390;29;20049;-70
2022/03/15 11:10:37;;;;;;;42.60;23.52;;;10.50;99.90;;;;;;4861222;29;20474;-70
2022/03/15 11:13:07;;;;;;;43.20;24.08;;;;;;;;;;4861752;29;20076;-70
2022/03/15 11:15:37;;;;;;;46.72;22.75;;;;;;;;;;4843889;29;21461;-70
2022/03/15 11:18:07;;;;;;;38.40;22.50;;;10.60;99.90;;;;;;4861515;29;20045;-70
2022/03/15 11:20:36;;;;;;;44.53;24.00;;;10.30;99.90;;;;;;4860940;29;20505;-70
2022/03/15 11:23:04;;;;;;;42.58;23.17;;;10.50;99.90;;;;;;4861395;29;20037;-70
2022/03/15 11:25:35;;;;;;;42.75;23.10;;;10.30;99.90;;;;;;4861842;29;20044;-70
2022/03/15 11:28:04;;;;;;;40.85;22.95;;;11.10;99.90;;;;;;4861684;29;20482;-71
2022/03/15 11:30:30;;;;;;;47.05;23.02;;;;;;;;;;4861668;29;20045;-70
2022/03/15 11:32:57;;;;;;;42.88;23.95;;;;;;;;;;4861801;29;20056;-70
2022/03/15 11:35:23;;;;;;;42.47;22.90;;;;;;;;;;4860160;29;20105;-70
2022/03/15 11:37:52;;;;;;;43.45;23.48;;;;;;;;;;4878183;29;20048;-70
2022/03/15 11:40:21;;;;;;;45.65;25.20;;;;;;;;;;4875947;29;20044;-70
2022/03/15 11:42:49;;;;;;;44.58;23.75;;;10.20;99.90;;;;;;4861829;29;20040;-70
2022/03/15 11:45:19;;;;;;;41.78;23.05;;;;;;;;;;4846247;29;20040;-71
2022/03/15 11:47:59;;;;;;;41.10;23.60;;;9.90;99.90;;;;;;4861829;29;20089;-71
2022/03/15 11:50:25;;;;;;;42.50;21.90;;;;;;;;;;4859943;29;20045;-71
2022/03/15 11:52:51;;;;;;;40.08;22.15;;;;;;;;;;4861299;29;20049;-71
2022/03/15 11:55:23;;;;;;;45.33;22.30;;;10.00;99.90;;;;;;4860939;29;20086;-71
2022/03/15 11:57:56;;;;;;;39.63;20.92;;;10.20;99.90;;;;;;4876670;29;20127;-71
2022/03/15 12:00:30;;;;;;;42.70;21.10;;;;;;;;;;4847910;29;20092;-70
2022/03/15 12:02:59;;;;;;;38.75;20.40;;;10.40;99.90;;;;;;4846941;29;20097;-71
2022/03/15 12:05:25;;;;;;;35.95;19.65;;;;;;;;;;4845838;29;20087;-71
2022/03/15 12:08:17;;;;;;;43.60;25.08;;;10.60;99.90;;;;;;4850303;29;20494;-71
2022/03/15 12:10:51;;;;;;;42.00;22.40;;;;;;;;;;4865155;29;20398;-71
2022/03/15 12:13:18;;;;;;;30.52;17.55;;;;;;;;;;4865060;29;20036;-70
2022/03/15 12:15:48;;;;;;;31.95;18.42;;;;;;;;;;4845908;29;20546;-70
2022/03/15 12:21:07;;;;;;;29.77;14.82;;;10.70;99.90;;;;;;4861938;29;20227;-70
2022/03/15 12:23:47;;;;;;;24.17;12.88;;;10.50;99.90;;;;;;4863692;29;20069;-70
2022/03/15 12:26:31;;;;;;;23.83;12.88;;;;;;;;;;4864430;29;20113;-70
2022/03/15 12:29:13;;;;;;;22.35;12.90;;;10.80;99.90;;;;;;4880381;29;20044;-75
2022/03/15 12:31:44;;;;;;;24.13;12.80;;;10.90;99.90;;;;;;4850462;29;20554;-70
2022/03/15 12:34:13;;;;;;;16.80;10.43;;;10.20;99.90;;;;;;4865660;29;20405;-71
2022/03/15 12:36:55;;;;;;;26.57;11.53;;;;;;;;;;4865731;29;20053;-70
2022/03/15 12:39:32;;;;;;;20.88;11.30;;;11.10;99.90;;;;;;4865409;29;20115;-70
2022/03/15 12:42:15;;;;;;;17.02;11.02;;;11.10;99.90;;;;;;4865865;29;20170;-70
2022/03/15 12:44:52;;;;;;;19.42;9.93;;;11.20;99.90;;;;;;4865344;29;20365;-72
2022/03/15 12:47:20;;;;;;;22.17;10.73;;;11.20;99.90;;;;;;4866015;29;20041;-72
2022/03/15 12:50:08;;;;;;;17.20;10.07;;;11.40;99.90;;;;;;4865225;29;20037;-71
2022/03/15 12:53:01;;;;;;;23.85;12.05;;;;;;;;;;4866052;29;20128;-72
2022/03/15 12:55:28;;;;;;;19.00;10.38;;;;;;;;;;4863294;29;20060;-72
2022/03/15 12:57:56;;;;;;;21.63;11.25;;;;;;;;;;4850048;29;20505;-72
2022/03/15 13:00:24;;;;;;;16.73;8.30;;;11.70;99.90;;;;;;4865092;29;20049;-70
2022/03/15 13:02:55;;;;;;;15.07;8.45;;;;;;;;;;4865025;29;20136;-70
2022/03/15 13:05:22;;;;;;;15.00;8.90;;;12.10;99.90;;;;;;4864885;29;20045;-70
2022/03/15 13:07:59;;;;;;;17.08;7.05;;;11.70;99.90;;;;;;4865597;29;20045;-70
2022/03/15 13:10:26;;;;;;;12.38;6.35;;;;;;;;;;4849828;29;20063;-70
2022/03/15 13:12:54;;;;;;;15.07;6.95;;;;;;;;;;4865113;29;20047;-70
2022/03/15 13:15:20;;;;;;;16.08;6.95;;;;;;;;;;4865073;29;20088;-70
2022/03/15 13:17:58;;;;;;;13.57;6.25;;;11.60;99.90;;;;;;4864473;29;20510;-70
2022/03/15 13:20:36;;;;;;;9.85;3.95;;;11.90;99.90;;;;;;4861338;29;20042;-70
2022/03/15 13:23:07;;;;;;;10.95;4.95;;;11.60;99.90;;;;;;4861666;29;20053;-70
2022/03/15 13:25:43;;;;;;;12.38;5.32;;;10.80;99.90;;;;;;4862463;29;20484;-70
2022/03/15 13:28:16;;;;;;;13.52;5.88;;;12.00;99.90;;;;;;4864982;29;20127;-70
2022/03/15 13:30:43;;;;;;;14.05;5.22;;;11.50;99.90;;;;;;4864835;29;20041;-70
2022/03/15 13:33:14;;;;;;;13.10;3.45;;;10.60;99.90;;;;;;4855906;29;20107;-70
2022/03/15 13:35:41;;;;;;;10.82;4.60;;;11.50;99.90;;;;;;4852231;29;20046;-70
2022/03/15 13:38:15;;;;;;;10.27;4.40;;;11.40;99.90;;;;;;4864974;29;20061;-70
2022/03/15 13:40:43;;;;;;;13.40;4.22;;;;;;;;;;4865838;29;20389;-70
2022/03/15 13:43:10;;;;;;;8.23;3.58;;;;;;;;;;4855303;29;20098;-70
2022/03/15 13:45:36;;;;;;;10.57;4.68;;;;;;;;;;4846981;29;20117;-70
2022/03/15 13:48:02;;;;;;;9.57;4.63;;;;;;;;;;4895528;29;20040;-70
2022/03/15 13:50:28;;;;;;;10.63;4.63;;;12.40;99.90;;;;;;4847080;29;20049;-70
2022/03/15 13:52:56;;;;;;;12.10;4.60;;;;;;;;;;4878833;29;20068;-70
2022/03/15 13:55:28;;;;;;;11.20;4.72;;;11.20;99.90;;;;;;4862741;29;20128;-69
2022/03/15 13:57:53;;;;;;;10.33;4.93;;;11.20;99.90;;;;;;4846901;29;20049;-70